Time;durP1;ratioP1;P1;durP2;ratioP2;P2;SDS_P1;SDS_P2;PMS_P1;PMS_P2;Temp;Humidity;BMP_temperature;BMP_pressure;BME280_temperature;BME280_humidity;BME280_pressure;Samples;Min_cycle;Max_cycle;Signal;HPM_P1;HPM_P2
2022/02/18 00:00:45;;;;;;;14.73;3.20;;;;;;;9.77;52.66;95220.22;5030148;28;20057;-72
2022/02/18 00:03:11;;;;;;;19.30;3.45;;;;;;;9.84;52.26;95215.31;5030888;28;20022;-72
2022/02/18 00:05:37;;;;;;;13.45;3.53;;;;;;;10.03;51.80;95222.34;5012992;28;20033;-72
2022/02/18 00:08:04;;;;;;;21.77;4.03;;;;;;;10.25;50.90;95222.47;5030911;28;20357;-72
2022/02/18 00:10:29;;;;;;;21.55;4.75;;;;;;;9.88;52.01;95210.19;5032683;28;20036;-72
2022/02/18 00:12:55;;;;;;;24.15;3.42;;;;;;;10.23;51.25;95216.59;5039030;28;20021;-72
2022/02/18 00:15:20;;;;;;;15.60;3.05;;;;;;;10.51;50.11;95192.66;5037789;28;20064;-72
2022/02/18 00:17:45;;;;;;;14.90;3.55;;;;;;;10.77;50.20;95198.94;5034740;28;20022;-72
2022/02/18 00:20:11;;;;;;;15.00;3.70;;;;;;;10.67;50.18;95199.16;5034567;28;20048;-72
2022/02/18 00:22:36;;;;;;;15.32;3.65;;;;;;;11.25;48.23;95192.94;5034655;28;20025;-72
2022/02/18 00:25:03;;;;;;;19.42;3.38;;;;;;;10.92;49.05;95174.59;5034828;28;20424;-72
2022/02/18 00:27:28;;;;;;;15.25;3.20;;;;;;;10.81;49.31;95185.81;5016732;28;20485;-72
2022/02/18 00:29:55;;;;;;;12.32;3.28;;;;;;;11.25;48.65;95187.59;5041119;28;20072;-72
2022/02/18 00:32:20;;;;;;;14.07;3.17;;;;;;;10.85;49.69;95181.44;5034720;28;20029;-72
2022/02/18 00:34:46;;;;;;;19.20;3.72;;;;;;;10.41;51.16;95204.28;5034932;28;20032;-72
2022/02/18 00:37:11;;;;;;;16.55;3.85;;;;;;;11.03;49.55;95192.97;5017180;28;20025;-72
2022/02/18 00:39:37;;;;;;;16.50;2.97;;;;;;;11.52;48.46;95175.97;5033906;28;20100;-72
2022/02/18 00:42:03;;;;;;;16.60;3.70;;;;;;;11.24;48.58;95169.28;5034171;28;20032;-72
2022/02/18 00:44:28;;;;;;;18.67;4.68;;;;;;;11.06;48.96;95192.38;5022243;28;20040;-72
2022/02/18 00:46:53;;;;;;;15.93;3.50;;;;;;;10.73;50.09;95163.38;5034290;28;20052;-72
2022/02/18 00:49:20;;;;;;;21.67;3.80;;;;;;;10.74;51.18;95183.56;5016261;28;20032;-72
2022/02/18 00:51:46;;;;;;;19.70;3.10;;;;;;;11.18;48.94;95166.75;5033909;28;20095;-72
2022/02/18 00:54:12;;;;;;;16.75;3.13;;;;;;;11.29;50.16;95182.47;5034198;28;20477;-71
2022/02/18 00:56:41;;;;;;;16.75;3.45;;;;;;;11.44;48.95;95161.53;5034313;28;20032;-72
2022/02/18 00:59:07;;;;;;;17.60;3.50;;;;;;;11.47;49.11;95156.69;5039364;28;20289;-71
2022/02/18 01:01:33;;;;;;;15.18;3.92;;;;;;;11.28;50.40;95184.34;5033901;28;20095;-71
2022/02/18 01:03:59;;;;;;;18.65;3.45;;;;;;;11.23;49.93;95189.78;5034327;28;20021;-72
2022/02/18 01:06:24;;;;;;;23.60;4.28;;;;;;;11.11;50.38;95195.69;5034080;28;20033;-71
2022/02/18 01:08:50;;;;;;;16.10;3.80;;;;;;;10.62;52.01;95207.28;5033923;28;20531;-71
2022/02/18 01:11:15;;;;;;;17.88;3.55;;;;;;;10.97;51.71;95202.19;5033885;28;20104;-71
2022/02/18 01:13:41;;;;;;;26.73;4.70;;;;;;;11.10;50.53;95186.13;5020725;28;20412;-71
2022/02/18 01:16:06;;;;;;;14.95;3.22;;;;;;;11.17;50.47;95185.69;5042022;28;20029;-71
2022/02/18 01:18:32;;;;;;;16.13;3.20;;;;;;;10.52;52.51;95191.56;5033555;28;20029;-71
2022/02/18 01:20:58;;;;;;;14.98;3.40;;;;;;;10.50;51.86;95178.56;5033271;28;20080;-71
2022/02/18 01:23:23;;;;;;;17.10;3.33;;;;;;;10.55;52.15;95190.97;5015640;28;20080;-72
2022/02/18 01:25:49;;;;;;;17.20;2.92;;;;;;;10.43;51.92;95172.06;5033647;28;20041;-71
2022/02/18 01:28:14;;;;;;;16.85;3.53;;;;;;;10.45;52.19;95172.56;5037299;28;20032;-71
2022/02/18 01:30:39;;;;;;;16.92;3.13;;;;;;;10.59;52.14;95181.25;5041773;28;20609;-71
2022/02/18 01:33:05;;;;;;;10.65;2.42;;;;;;;10.81;52.35;95183.94;5033518;28;20053;-71
2022/02/18 01:35:31;;;;;;;27.45;4.07;;;;;;;10.21;52.50;95162.19;5033657;28;20422;-71
2022/02/18 01:37:56;;;;;;;22.13;4.55;;;;;;;10.60;51.62;95172.22;5033614;28;20381;-72
2022/02/18 01:40:23;;;;;;;19.92;3.42;;;;;;;10.17;53.11;95180.59;5015295;28;20124;-71
2022/02/18 01:42:48;;;;;;;14.45;3.45;;;;;;;10.52;52.61;95164.94;5015233;28;20029;-72
2022/02/18 01:45:16;;;;;;;14.48;3.55;;;;;;;10.77;51.40;95153.69;5019415;28;20026;-71
2022/02/18 01:47:41;;;;;;;12.38;3.22;;;;;;;10.56;52.92;95152.63;5033302;28;20449;-72
2022/02/18 01:50:08;;;;;;;19.38;3.85;;;;;;;10.43;52.18;95140.16;5032397;28;20030;-71
2022/02/18 01:52:40;;;;;;;16.00;3.20;;;;;;;10.31;52.98;95149.47;5032675;28;20029;-73
2022/02/18 01:55:11;;;;;;;18.00;3.72;;;;;;;10.57;52.28;95139.03;5032942;28;20105;-72
2022/02/18 01:57:39;;;;;;;14.40;3.10;;;;;;;10.67;53.30;95169.91;5032712;28;20026;-72
2022/02/18 02:00:07;;;;;;;12.13;2.90;;;;;;;10.62;52.73;95172.69;5035797;28;20021;-72
2022/02/18 02:02:32;;;;;;;15.63;2.65;;;;;;;10.32;53.48;95168.88;5032457;28;20112;-72
2022/02/18 02:04:57;;;;;;;10.05;2.38;;;;;;;10.44;53.10;95174.47;5032968;28;20156;-72
2022/02/18 02:07:23;;;;;;;19.55;3.10;;;;;;;10.11;54.06;95161.31;5032623;28;20026;-71
2022/02/18 02:09:48;;;;;;;16.42;3.10;;;;;;;10.72;52.74;95169.78;5032345;28;20053;-71
2022/02/18 02:12:14;;;;;;;19.65;2.95;;;;;;;10.59;52.80;95142.16;5032431;28;20108;-71
2022/02/18 02:14:40;;;;;;;14.35;2.90;;;;;;;10.11;53.01;95121.47;5025339;28;20488;-71
2022/02/18 02:17:05;;;;;;;12.88;2.80;;;;;;;10.70;52.54;95149.88;5029050;28;20039;-72
2022/02/18 02:19:31;;;;;;;15.88;3.63;;;;;;;10.30;53.67;95131.97;5034343;28;20086;-71
2022/02/18 02:21:57;;;;;;;17.80;4.47;;;;;;;10.51;53.55;95137.56;5034369;28;20060;-72
2022/02/18 02:24:22;;;;;;;13.60;2.55;;;;;;;10.15;53.88;95122.44;5034612;28;20124;-71
2022/02/18 02:26:48;;;;;;;17.75;3.30;;;;;;;10.38;54.29;95136.53;5034800;28;20040;-71
2022/02/18 02:29:14;;;;;;;19.67;3.08;;;;;;;10.01;54.64;95140.28;5051607;28;20021;-71
2022/02/18 02:31:41;;;;;;;12.63;3.05;;;;;;;10.15;54.48;95137.59;5032211;28;20021;-71
2022/02/18 02:34:06;;;;;;;15.45;3.30;;;;;;;10.32;54.72;95131.66;5031617;28;20036;-71
2022/02/18 02:36:33;;;;;;;14.20;2.97;;;;;;;10.65;52.82;95129.53;5032276;28;20033;-71
2022/02/18 02:38:58;;;;;;;19.33;3.20;;;;;;;9.91;54.67;95098.00;5032029;28;20079;-71
2022/02/18 02:41:25;;;;;;;15.38;3.67;;;;;;;10.45;53.35;95114.84;5031956;28;20030;-71
2022/02/18 02:43:50;;;;;;;13.27;3.05;;;;;;;10.39;54.12;95124.06;5033875;28;20022;-71
2022/02/18 02:46:16;;;;;;;13.68;2.78;;;;;;;10.77;52.91;95113.00;5014320;28;20019;-71
2022/02/18 02:48:41;;;;;;;14.20;3.63;;;;;;;10.89;52.82;95114.00;5031976;28;20026;-71
2022/02/18 02:51:08;;;;;;;13.48;3.13;;;;;;;10.93;52.87;95133.59;5032165;28;20026;-70
2022/02/18 02:53:34;;;;;;;14.73;3.13;;;;;;;10.63;53.55;95123.72;5031873;28;20100;-71
2022/02/18 02:56:00;;;;;;;10.77;3.00;;;;;;;10.75;53.38;95112.50;5032005;28;20025;-70
2022/02/18 02:58:25;;;;;;;12.85;3.10;;;;;;;10.54;53.45;95114.88;5032749;28;20029;-72
2022/02/18 03:00:51;;;;;;;13.15;2.55;;;;;;;10.28;54.13;95122.69;5039908;28;20029;-71
2022/02/18 03:03:17;;;;;;;11.82;2.67;;;;;;;10.30;53.94;95123.97;5030602;28;20485;-71
2022/02/18 03:05:42;;;;;;;11.05;2.58;;;;;;;10.61;53.07;95109.94;5032028;28;20040;-72
2022/02/18 03:08:07;;;;;;;15.13;2.88;;;;;;;10.59;52.68;95144.81;5030439;28;20025;-71
2022/02/18 03:10:33;;;;;;;8.65;2.40;;;;;;;10.40;53.10;95126.41;5030237;28;20022;-71
2022/02/18 03:12:59;;;;;;;11.73;2.67;;;;;;;10.40;53.53;95150.34;5031781;28;20388;-71
2022/02/18 03:15:25;;;;;;;15.18;2.83;;;;;;;10.48;53.88;95164.75;5031790;28;20021;-71
2022/02/18 03:17:50;;;;;;;17.27;3.95;;;;;;;10.51;53.11;95169.50;5031668;28;20108;-71
2022/02/18 03:20:16;;;;;;;16.17;2.58;;;;;;;10.41;53.94;95175.81;5013392;28;20047;-71
2022/02/18 03:22:41;;;;;;;11.27;2.72;;;;;;;10.52;54.19;95172.94;5031328;28;20032;-71
2022/02/18 03:25:07;;;;;;;22.10;4.22;;;;;;;10.65;54.37;95169.44;5031500;28;20025;-71
2022/02/18 03:27:33;;;;;;;14.38;2.80;;;;;;;10.44;54.75;95174.47;5031194;28;20033;-70
2022/02/18 03:29:58;;;;;;;17.92;3.20;;;;;;;10.31;54.81;95192.00;5021231;28;20021;-71
2022/02/18 03:32:24;;;;;;;19.50;3.55;;;;;;;10.41;55.00;95165.19;5012792;28;20525;-72
2022/02/18 03:34:49;;;;;;;15.50;3.45;;;;;;;10.73;55.02;95166.03;5013282;28;20052;-71
2022/02/18 03:37:14;;;;;;;16.67;3.70;;;;;;;10.82;54.46;95152.78;5031300;28;20031;-71
2022/02/18 03:39:40;;;;;;;15.55;3.55;;;;;;;10.52;55.63;95146.34;5030877;28;20470;-71
2022/02/18 03:42:06;;;;;;;22.05;3.17;;;;;;;11.03;54.46;95164.47;5031469;28;20026;-71
2022/02/18 03:44:32;;;;;;;22.08;3.65;;;;;;;10.79;54.77;95127.56;5038619;28;20477;-71
2022/02/18 03:46:58;;;;;;;13.38;3.65;;;;;;;11.40;53.04;95139.25;5031297;28;20013;-71
2022/02/18 03:49:23;;;;;;;18.88;3.35;;;;;;;11.07;53.65;95116.75;5013171;28;20029;-71
2022/02/18 03:51:49;;;;;;;16.83;3.17;;;;;;;10.99;53.38;95131.56;5012833;28;20033;-73
2022/02/18 03:54:14;;;;;;;12.65;3.30;;;;;;;10.71;55.08;95154.13;5013129;28;20038;-71
2022/02/18 03:56:39;;;;;;;13.52;3.88;;;;;;;10.85;54.80;95160.16;5013428;28;20022;-71
2022/02/18 03:59:05;;;;;;;21.45;3.38;;;;;;;10.75;54.36;95171.03;5035266;28;20457;-71
2022/02/18 04:01:30;;;;;;;11.55;3.17;;;;;;;10.58;55.64;95190.34;5062556;28;20017;-71
2022/02/18 04:03:56;;;;;;;13.88;2.83;;;;;;;11.00;54.29;95181.03;5050458;28;20514;-70
2022/02/18 04:06:21;;;;;;;17.75;4.03;;;;;;;11.33;52.78;95146.13;5032893;28;20439;-71
2022/02/18 04:08:47;;;;;;;12.50;3.05;;;;;;;11.21;53.39;95160.03;5050641;28;20029;-70
2022/02/18 04:11:12;;;;;;;18.25;3.75;;;;;;;11.58;52.33;95145.44;5050272;28;20025;-72
2022/02/18 04:13:37;;;;;;;19.83;3.85;;;;;;;11.22;53.43;95145.63;5032190;28;20166;-72
2022/02/18 04:16:03;;;;;;;16.27;2.83;;;;;;;11.39;52.22;95139.56;5018463;28;20029;-71
2022/02/18 04:18:29;;;;;;;14.85;3.00;;;;;;;11.10;53.60;95132.09;5030127;28;20116;-72
2022/02/18 04:20:54;;;;;;;14.43;3.17;;;;;;;11.50;52.53;95134.75;5012645;28;20495;-72
2022/02/18 04:23:20;;;;;;;12.35;3.10;;;;;;;11.67;52.05;95140.13;5012527;28;20034;-72
2022/02/18 04:25:45;;;;;;;18.60;4.35;;;;;;;11.91;50.98;95135.16;5030628;28;20036;-72
2022/02/18 04:28:10;;;;;;;10.10;2.65;;;;;;;11.28;52.61;95140.94;5012672;28;20029;-71
2022/02/18 04:30:36;;;;;;;16.58;3.63;;;;;;;10.97;53.33;95130.31;5035867;28;20053;-72
2022/02/18 04:33:01;;;;;;;14.70;4.13;;;;;;;11.12;52.64;95143.22;5030245;28;20067;-71
2022/02/18 04:35:27;;;;;;;20.75;3.53;;;;;;;11.10;53.22;95132.09;5030322;28;20036;-71
2022/02/18 04:37:52;;;;;;;15.52;3.28;;;;;;;11.11;52.82;95117.72;5030423;28;20461;-71
2022/02/18 04:40:19;;;;;;;16.20;3.63;;;;;;;11.09;53.20;95141.97;5030216;28;20034;-72
2022/02/18 04:42:45;;;;;;;14.98;3.35;;;;;;;11.61;51.26;95130.69;5012836;28;20428;-70
2022/02/18 04:45:11;;;;;;;14.50;2.75;;;;;;;11.35;52.28;95127.97;5035612;28;20029;-70
2022/02/18 04:47:36;;;;;;;19.45;3.05;;;;;;;10.87;53.77;95123.38;5020565;28;20385;-71
2022/02/18 04:50:04;;;;;;;13.45;3.38;;;;;;;11.55;51.34;95107.97;5030306;28;20029;-72
2022/02/18 04:52:30;;;;;;;12.23;2.78;;;;;;;11.78;51.51;95120.09;5012252;28;20163;-71
2022/02/18 04:54:55;;;;;;;12.45;3.17;;;;;;;11.97;50.56;95120.59;5012483;28;20124;-70
2022/02/18 04:57:20;;;;;;;16.58;3.50;;;;;;;11.39;51.97;95116.38;5015699;28;20026;-71
2022/02/18 04:59:46;;;;;;;19.52;3.80;;;;;;;11.94;50.78;95118.56;5038163;28;20454;-71
2022/02/18 05:02:13;;;;;;;16.35;2.80;;;;;;;11.27;52.66;95110.88;5033600;28;20068;-72
2022/02/18 05:04:40;;;;;;;13.40;3.03;;;;;;;11.54;51.45;95104.53;5016091;28;20037;-71
2022/02/18 05:07:06;;;;;;;21.45;2.88;;;;;;;10.49;54.48;95091.88;5033798;28;20382;-71
2022/02/18 05:09:32;;;;;;;14.27;2.95;;;;;;;10.92;53.63;95105.41;5015904;28;20076;-71
2022/02/18 05:11:57;;;;;;;15.15;3.80;;;;;;;11.11;53.20;95113.16;5033454;28;20033;-71
2022/02/18 05:14:22;;;;;;;15.13;3.67;;;;;;;11.13;53.37;95110.19;5037616;28;20433;-72
2022/02/18 05:16:48;;;;;;;20.02;3.83;;;;;;;11.47;52.34;95095.44;5015776;28;20023;-70
2022/02/18 05:19:13;;;;;;;18.02;3.50;;;;;;;11.32;52.76;95091.31;5015769;28;20060;-71
2022/02/18 05:21:39;;;;;;;16.27;3.47;;;;;;;11.63;51.47;95091.22;5015138;28;20397;-71
2022/02/18 05:24:06;;;;;;;12.27;3.10;;;;;;;11.59;51.42;95084.94;5015445;28;20099;-71
2022/02/18 05:26:32;;;;;;;23.70;3.40;;;;;;;11.87;50.71;95078.25;5033547;28;20379;-71
2022/02/18 05:28:58;;;;;;;18.20;3.42;;;;;;;11.96;50.32;95071.03;5033820;28;20465;-71
2022/02/18 05:31:23;;;;;;;15.32;4.25;;;;;;;11.75;51.17;95078.06;5035785;28;20072;-71
2022/02/18 05:33:48;;;;;;;19.88;3.85;;;;;;;11.80;50.56;95075.25;5015355;28;20029;-71
2022/02/18 05:36:14;;;;;;;22.67;3.33;;;;;;;11.62;51.63;95068.34;5033111;28;20032;-71
2022/02/18 05:38:43;;;;;;;18.70;3.58;;;;;;;11.60;52.05;95071.31;5015228;28;20030;-71
2022/02/18 05:41:17;;;;;;;19.60;3.15;;;;;;;11.62;51.30;95065.69;5015510;28;20101;-71
2022/02/18 05:43:43;;;;;;;18.65;2.85;;;;;;;11.89;51.25;95065.41;5033275;28;20026;-71
2022/02/18 05:46:09;;;;;;;25.10;3.42;;;;;;;11.98;51.25;95076.09;5018107;28;20033;-71
2022/02/18 05:48:35;;;;;;;22.42;4.63;;;;;;;11.71;51.01;95061.13;5015364;28;20120;-71
2022/02/18 05:51:01;;;;;;;18.23;3.63;;;;;;;11.87;51.09;95056.16;5033097;28;20021;-72
2022/02/18 05:53:27;;;;;;;16.60;3.33;;;;;;;11.85;50.38;95037.81;5033037;28;20029;-71
2022/02/18 05:55:52;;;;;;;13.95;3.17;;;;;;;11.87;50.63;95066.81;5032883;28;20037;-72
2022/02/18 05:58:18;;;;;;;25.05;3.85;;;;;;;11.96;50.31;95031.06;5015178;28;20116;-72
2022/02/18 06:00:43;;;;;;;23.10;4.38;;;;;;;12.06;50.23;95040.63;5034784;28;20646;-72
2022/02/18 06:03:09;;;;;;;17.08;3.13;;;;;;;12.42;49.51;95020.78;5032342;28;20048;-71
2022/02/18 06:05:34;;;;;;;16.67;4.20;;;;;;;12.48;49.24;95028.31;5015071;28;20053;-71
2022/02/18 06:07:59;;;;;;;13.70;3.13;;;;;;;12.64;48.92;95043.78;5015131;28;20033;-72
2022/02/18 06:10:25;;;;;;;14.75;3.20;;;;;;;12.61;49.11;95025.78;5014497;28;20354;-70
2022/02/18 06:12:51;;;;;;;17.83;4.28;;;;;;;12.61;48.82;95042.56;5015012;28;20029;-70
2022/02/18 06:15:17;;;;;;;22.95;3.97;;;;;;;12.71;48.80;95052.09;5034194;28;20118;-70
2022/02/18 06:17:42;;;;;;;17.20;3.75;;;;;;;12.87;48.61;95041.69;5026393;28;20028;-73
2022/02/18 06:20:09;;;;;;;18.08;3.65;;;;;;;12.35;49.57;95053.28;5034571;28;20161;-72
2022/02/18 06:22:36;;;;;;;12.63;3.38;;;;;;;12.68;48.84;95020.72;5034315;28;20029;-72
2022/02/18 06:25:04;;;;;;;21.55;4.18;;;;;;;13.14;48.39;95051.94;5034679;28;20021;-71
2022/02/18 06:27:29;;;;;;;17.23;3.30;;;;;;;13.40;47.74;95045.69;5032872;28;20537;-69
2022/02/18 06:29:55;;;;;;;16.05;3.17;;;;;;;13.68;47.14;95043.31;5028585;28;20178;-69
2022/02/18 06:32:21;;;;;;;19.42;3.63;;;;;;;13.84;46.71;95033.59;5013785;28;20006;-69
2022/02/18 06:34:46;;;;;;;17.83;3.97;;;;;;;14.05;46.37;95052.31;5014072;28;20492;-69
2022/02/18 06:37:11;;;;;;;17.52;3.25;;;;;;;14.11;46.08;95047.53;5031934;28;20025;-70
2022/02/18 06:39:37;;;;;;;18.73;4.07;;;;;;;14.08;45.78;95024.13;5031810;28;20444;-69
2022/02/18 06:42:03;;;;;;;22.75;3.53;;;;;;;14.44;45.40;95058.25;5031771;28;20083;-69
2022/02/18 06:44:28;;;;;;;20.23;4.57;;;;;;;14.49;45.37;95037.47;5032637;28;20030;-70
2022/02/18 06:46:56;;;;;;;23.98;3.97;;;;;;;14.62;45.25;95029.44;5013741;28;20029;-70
2022/02/18 06:49:22;;;;;;;22.67;4.30;;;;;;;14.73;44.52;95036.72;5031699;28;20018;-70
2022/02/18 06:51:55;;;;;;;17.27;3.15;;;;;;;14.83;44.03;95022.09;5031565;28;20055;-69
2022/02/18 06:54:22;;;;;;;12.35;3.63;;;;;;;14.90;44.03;95021.56;5013712;28;20385;-69
2022/02/18 06:56:48;;;;;;;20.23;3.70;;;;;;;14.92;44.14;95009.41;5031992;28;20448;-69
2022/02/18 06:59:13;;;;;;;16.67;3.60;;;;;;;15.07;43.57;95016.78;5031486;28;20105;-69
2022/02/18 07:01:39;;;;;;;18.90;4.45;;;;;;;15.14;43.39;95010.06;5013483;28;20037;-69
2022/02/18 07:04:04;;;;;;;13.13;3.55;;;;;;;15.10;43.44;94993.91;5031725;28;20072;-70
2022/02/18 07:06:29;;;;;;;14.85;3.47;;;;;;;15.30;43.39;95008.25;5031512;28;20044;-69
2022/02/18 07:08:55;;;;;;;20.73;3.85;;;;;;;15.43;43.13;95007.16;5031344;28;20033;-70
2022/02/18 07:11:22;;;;;;;19.70;3.30;;;;;;;15.42;42.71;95000.22;5031541;28;20018;-70
2022/02/18 07:13:48;;;;;;;19.10;3.58;;;;;;;15.46;42.56;95001.13;5031584;28;20027;-70
2022/02/18 07:16:14;;;;;;;22.70;3.97;;;;;;;15.70;42.27;95007.56;5039027;28;20032;-69
2022/02/18 07:18:39;;;;;;;18.30;3.60;;;;;;;15.88;42.17;95008.09;5012573;28;20061;-70
2022/02/18 07:21:05;;;;;;;17.38;3.15;;;;;;;15.76;42.22;94998.16;5031103;28;20030;-69
2022/02/18 07:23:31;;;;;;;18.92;4.05;;;;;;;15.74;42.31;94998.50;5013329;28;20025;-70
2022/02/18 07:25:56;;;;;;;15.35;4.20;;;;;;;15.73;41.79;95002.31;5013519;28;20463;-69
2022/02/18 07:28:21;;;;;;;10.75;3.25;;;;;;;15.80;41.57;94982.94;5031140;28;20021;-69
2022/02/18 07:30:47;;;;;;;17.90;3.95;;;;;;;15.96;42.00;94986.47;5037822;28;20186;-69
2022/02/18 07:33:12;;;;;;;16.92;3.45;;;;;;;16.09;41.63;94987.22;5031115;28;20017;-70
2022/02/18 07:35:38;;;;;;;17.65;3.72;;;;;;;16.14;41.18;94968.19;5031253;28;20112;-69
2022/02/18 07:38:04;;;;;;;12.82;3.47;;;;;;;16.47;40.95;94988.56;5013657;28;20056;-70
2022/02/18 07:40:29;;;;;;;17.30;4.00;;;;;;;16.51;40.66;94968.75;5030391;28;20063;-70
2022/02/18 07:42:55;;;;;;;27.27;3.95;;;;;;;16.61;40.54;94967.47;5013805;28;20059;-70
2022/02/18 07:45:21;;;;;;;13.30;3.13;;;;;;;16.64;40.26;94967.56;5019823;28;20029;-71
2022/02/18 07:47:52;;;;;;;17.98;3.55;;;;;;;16.66;40.15;94950.31;5030645;28;20105;-71
2022/02/18 07:50:17;;;;;;;19.13;3.28;;;;;;;16.73;39.92;94953.19;5030623;28;20053;-71
2022/02/18 07:52:43;;;;;;;13.52;3.72;;;;;;;16.68;39.84;94940.75;5030993;28;20057;-68
2022/02/18 07:55:08;;;;;;;11.95;2.97;;;;;;;16.77;39.74;94937.94;5030705;28;20053;-68
2022/02/18 07:57:34;;;;;;;22.08;3.85;;;;;;;16.92;39.46;94950.56;5013219;28;20063;-71
2022/02/18 07:59:59;;;;;;;12.98;3.05;;;;;;;17.07;39.21;94940.94;5034086;28;20116;-71
2022/02/18 08:02:25;;;;;;;11.43;3.55;;;;;;;17.14;39.09;94930.34;5015101;28;20025;-69
2022/02/18 08:04:50;;;;;;;10.93;3.22;;;;;;;17.28;38.70;94936.03;5013311;28;20032;-68
2022/02/18 08:07:16;;;;;;;18.80;3.22;;;;;;;17.27;38.65;94915.66;5013344;28;20026;-69
2022/02/18 08:09:41;;;;;;;12.20;2.88;;;;;;;17.32;38.50;94914.63;5030866;28;20025;-69
2022/02/18 08:12:07;;;;;;;13.52;2.80;;;;;;;17.39;38.58;94920.13;5030680;28;20026;-69
2022/02/18 08:14:32;;;;;;;9.63;2.65;;;;;;;17.45;38.32;94924.09;5013127;28;20160;-70
2022/02/18 08:16:58;;;;;;;11.80;3.00;;;;;;;17.51;38.28;94911.16;5018403;28;20030;-70
2022/02/18 08:19:23;;;;;;;15.25;3.47;;;;;;;17.58;38.01;94911.31;5013075;28;20083;-69
2022/02/18 08:21:49;;;;;;;11.00;2.72;;;;;;;17.64;37.67;94907.19;5030800;28;20026;-70
2022/02/18 08:24:18;;;;;;;8.95;2.88;;;;;;;17.73;37.87;94896.25;5030322;28;20444;-70
2022/02/18 08:26:52;;;;;;;9.15;3.05;;;;;;;18.01;37.55;94894.09;5030821;28;20030;-70
2022/02/18 08:29:21;;;;;;;8.02;2.38;;;;;;;18.16;37.13;94882.44;5012746;28;20028;-70
2022/02/18 08:31:47;;;;;;;9.77;2.50;;;;;;;18.23;36.94;94886.41;5019808;28;20029;-69
2022/02/18 08:34:13;;;;;;;7.43;3.13;;;;;;;18.05;37.09;94873.41;5016519;28;20112;-67
2022/02/18 08:36:38;;;;;;;7.95;2.30;;;;;;;17.86;37.13;94876.13;5034425;28;20101;-67
2022/02/18 08:39:05;;;;;;;14.00;3.90;;;;;;;17.83;37.66;94877.63;5034323;28;20021;-68
2022/02/18 08:41:32;;;;;;;8.88;3.30;;;;;;;17.63;38.16;94868.75;5034095;28;20061;-68
2022/02/18 08:43:58;;;;;;;12.38;4.25;;;;;;;17.53;38.38;94847.81;5034498;28;20539;-69
2022/02/18 08:46:27;;;;;;;12.57;2.65;;;;;;;17.63;38.34;94841.88;5038723;28;20021;-68
2022/02/18 08:48:53;;;;;;;7.47;2.35;;;;;;;17.77;38.37;94848.69;5016210;28;20025;-69
2022/02/18 08:51:18;;;;;;;11.60;2.40;;;;;;;17.74;39.01;94854.78;5016349;28;20021;-66
2022/02/18 08:53:44;;;;;;;8.00;2.13;;;;;;;17.77;39.29;94849.47;5016435;28;20142;-67
2022/02/18 08:56:09;;;;;;;8.77;2.40;;;;;;;17.85;39.08;94836.91;5033908;28;20036;-66
2022/02/18 08:58:35;;;;;;;8.50;2.10;;;;;;;18.03;38.59;94848.78;5033792;28;20025;-67
2022/02/18 09:01:00;;;;;;;4.40;2.17;;;;;;;18.12;38.98;94830.47;5037337;28;20030;-67
2022/02/18 09:03:26;;;;;;;9.57;2.63;;;;;;;17.96;38.94;94805.56;5033564;28;20551;-66
2022/02/18 09:05:51;;;;;;;9.18;2.45;;;;;;;18.11;38.73;94831.59;5033789;28;20029;-67
2022/02/18 09:08:17;;;;;;;9.77;2.70;;;;;;;18.17;38.72;94816.72;5016131;28;20025;-68
2022/02/18 09:10:44;;;;;;;7.60;2.20;;;;;;;18.37;38.34;94819.31;5015584;28;20432;-66
2022/02/18 09:13:20;;;;;;;8.07;2.92;;;;;;;18.63;37.72;94822.03;5015619;28;20040;-67
2022/02/18 09:15:46;;;;;;;9.30;2.45;;;;;;;18.73;37.47;94827.97;5036680;28;20108;-68
2022/02/18 09:18:12;;;;;;;8.10;2.10;;;;;;;18.90;37.20;94819.38;5022787;28;20032;-68
2022/02/18 09:20:38;;;;;;;8.75;3.63;;;;;;;19.03;37.09;94798.34;5035730;28;20029;-68
2022/02/18 09:23:03;;;;;;;4.95;2.17;;;;;;;19.11;36.38;94808.84;5053463;28;20118;-68
2022/02/18 09:25:29;;;;;;;6.72;2.00;;;;;;;19.04;36.35;94792.59;5035905;28;20052;-67
2022/02/18 09:27:55;;;;;;;6.45;2.22;;;;;;;19.32;35.94;94804.88;5053651;28;20029;-68
2022/02/18 09:30:21;;;;;;;8.73;2.55;;;;;;;19.41;36.08;94789.19;5034309;28;20128;-71
2022/02/18 09:32:46;;;;;;;8.82;2.17;;;;;;;19.33;34.99;94782.91;5033653;28;20381;-73
2022/02/18 09:35:13;;;;;;;7.53;2.22;;;;;;;19.22;35.79;94777.41;5016144;28;20096;-71
2022/02/18 09:37:39;;;;;;;6.03;2.10;;;;;;;19.42;35.63;94759.13;5033713;28;20025;-73
2022/02/18 09:40:07;;;;;;;6.20;2.70;;;;;;;19.48;35.08;94765.75;5015749;28;20030;-73
2022/02/18 09:42:34;;;;;;;5.88;2.05;;;;;;;19.70;35.06;94755.19;5015416;28;20469;-74
2022/02/18 09:45:00;;;;;;;10.00;2.33;;;;;;;19.84;34.70;94749.94;5033607;28;20041;-74
2022/02/18 09:47:26;;;;;;;7.25;1.92;;;;;;;19.81;34.19;94757.97;5017846;28;20057;-72
2022/02/18 09:49:52;;;;;;;5.55;2.30;;;;;;;19.94;34.06;94738.44;5033402;28;20064;-72
2022/02/18 09:52:18;;;;;;;6.53;1.80;;;;;;;20.00;32.92;94741.56;5033103;28;20434;-73
2022/02/18 09:54:45;;;;;;;5.32;2.10;;;;;;;19.98;33.41;94712.25;5033429;28;20105;-73
2022/02/18 09:57:10;;;;;;;5.82;2.53;;;;;;;20.26;33.31;94711.69;5033429;28;20060;-72
2022/02/18 09:59:37;;;;;;;5.28;2.03;;;;;;;20.46;32.54;94714.13;5032954;28;20045;-71
2022/02/18 10:02:03;;;;;;;5.32;2.55;;;;;;;20.54;32.10;94712.28;5033968;28;20075;-72
2022/02/18 10:04:29;;;;;;;6.13;2.33;;;;;;;20.63;31.65;94710.03;5033018;28;20030;-73
2022/02/18 10:06:55;;;;;;;6.80;2.70;;;;;;;20.68;31.83;94710.44;5032732;28;20025;-72
2022/02/18 10:09:41;;;;;;;4.97;1.90;;;;;;;20.80;31.35;94708.53;5014931;28;20476;-73
2022/02/18 10:12:08;;;;;;;5.53;2.10;;;;;;;20.94;31.16;94695.09;5032648;28;20116;-73
2022/02/18 10:15:10;;;;;;;4.63;1.60;;;;;;;20.63;30.52;94691.09;5014959;28;20049;-72
2022/02/18 10:17:41;;;;;;;4.40;1.80;;;;;;;20.84;30.98;94687.72;5024169;28;20041;-73
2022/02/18 10:20:39;;;;;;;7.07;2.00;;;;;;;21.09;30.63;94685.88;5014510;28;20115;-73
2022/02/18 10:23:07;;;;;;;5.03;1.42;;;;;;;21.20;30.21;94685.91;5016992;28;20307;-73
2022/02/18 10:25:42;;;;;;;4.50;1.77;;;;;;;21.28;30.41;94677.41;5032619;28;20021;-72
2022/02/18 10:28:12;;;;;;;5.63;1.67;;;;;;;21.30;30.08;94668.97;5032469;28;20025;-72
2022/02/18 10:30:39;;;;;;;3.58;1.55;;;;;;;21.28;29.77;94665.81;5032205;28;20565;-71
2022/02/18 10:33:22;;;;;;;3.90;1.88;;;;;;;21.49;29.91;94668.56;5032282;28;20049;-72
2022/02/18 10:35:49;;;;;;;5.55;1.88;;;;;;;21.71;28.84;94668.63;5032258;28;20025;-73
2022/02/18 10:38:15;;;;;;;5.35;1.73;;;;;;;21.90;28.90;94662.78;5014265;28;20355;-74
2022/02/18 10:40:48;;;;;;;3.20;1.70;;;;;;;22.02;29.04;94656.22;5013906;28;20025;-74
2022/02/18 10:43:16;;;;;;;4.18;1.80;;;;;;;22.15;28.63;94643.84;5032305;28;20509;-73
2022/02/18 10:45:50;;;;;;;4.93;2.10;;;;;;;22.16;28.41;94644.59;5017067;28;20055;-74
2022/02/18 10:48:20;;;;;;;6.13;1.80;;;;;;;22.09;28.51;94636.47;5035637;28;20025;-74
2022/02/18 10:51:08;;;;;;;5.93;2.08;;;;;;;22.16;28.71;94634.56;5013647;28;20033;-69
2022/02/18 10:53:39;;;;;;;3.95;1.77;;;;;;;22.27;28.17;94629.91;5031224;28;20086;-71
2022/02/18 10:56:05;;;;;;;5.65;1.95;;;;;;;22.29;28.25;94608.59;5031675;28;20037;-77
2022/02/18 10:58:31;;;;;;;3.83;1.83;;;;;;;22.42;27.89;94595.41;5031900;28;20087;-74
2022/02/18 11:01:17;;;;;;;4.45;1.65;;;;;;;22.35;27.83;94592.69;5018376;28;20025;-74
2022/02/18 11:03:48;;;;;;;3.53;1.70;;;;;;;22.31;27.89;94589.22;5014175;28;20049;-73
2022/02/18 11:06:25;;;;;;;3.78;1.73;;;;;;;22.30;27.76;94587.69;5031842;28;20036;-73
2022/02/18 11:08:58;;;;;;;4.93;1.90;;;;;;;22.36;28.28;94583.41;5013611;28;20108;-72
2022/02/18 11:11:37;;;;;;;3.53;1.90;;;;;;;22.30;28.47;94583.03;5013916;28;20030;-77
2022/02/18 11:14:05;;;;;;;5.43;2.33;;;;;;;22.17;28.36;94571.09;5031988;28;20017;-73
2022/02/18 11:16:33;;;;;;;4.25;1.90;;;;;;;22.08;28.43;94569.94;5020517;28;20440;-72
2022/02/18 11:18:59;;;;;;;4.03;2.45;;;;;;;22.10;28.70;94573.78;5039483;28;20024;-72
2022/02/18 11:21:27;;;;;;;4.70;2.08;;;;;;;21.89;29.00;94539.41;5031372;28;20068;-74
2022/02/18 11:23:54;;;;;;;7.00;2.10;;;;;;;22.03;28.78;94554.84;5030691;28;20029;-75